sensor_id;sensor_type;location;lat;lon;timestamp;P1;durP1;ratioP1;P2;durP2;ratioP2
33268;SDS011;19640;50.944;5.260;2023-12-22T00:01:25;16.08;;;2.10;;
33268;SDS011;19640;50.944;5.260;2023-12-22T00:03:50;8.88;;;1.45;;
33268;SDS011;19640;50.944;5.260;2023-12-22T00:06:16;13.00;;;2.63;;
33268;SDS011;19640;50.944;5.260;2023-12-22T00:08:41;12.00;;;1.85;;
33268;SDS011;19640;50.944;5.260;2023-12-22T00:11:07;17.27;;;2.08;;
33268;SDS011;19640;50.944;5.260;2023-12-22T00:13:33;18.52;;;2.40;;
33268;SDS011;19640;50.944;5.260;2023-12-22T00:15:59;20.58;;;3.03;;
33268;SDS011;19640;50.944;5.260;2023-12-22T00:18:28;16.35;;;2.03;;
33268;SDS011;19640;50.944;5.260;2023-12-22T00:20:53;14.05;;;2.17;;
33268;SDS011;19640;50.944;5.260;2023-12-22T00:23:19;16.38;;;3.40;;
33268;SDS011;19640;50.944;5.260;2023-12-22T00:25:44;15.38;;;3.00;;
33268;SDS011;19640;50.944;5.260;2023-12-22T00:28:10;16.05;;;2.05;;
33268;SDS011;19640;50.944;5.260;2023-12-22T00:30:36;10.13;;;1.85;;
33268;SDS011;19640;50.944;5.260;2023-12-22T00:33:01;10.13;;;1.70;;
33268;SDS011;19640;50.944;5.260;2023-12-22T00:35:27;12.82;;;2.20;;
33268;SDS011;19640;50.944;5.260;2023-12-22T00:37:53;8.18;;;1.60;;
33268;SDS011;19640;50.944;5.260;2023-12-22T00:40:19;6.60;;;1.45;;
33268;SDS011;19640;50.944;5.260;2023-12-22T00:42:44;14.07;;;2.45;;
33268;SDS011;19640;50.944;5.260;2023-12-22T00:45:10;13.45;;;2.42;;
33268;SDS011;19640;50.944;5.260;2023-12-22T00:47:36;9.82;;;1.95;;
33268;SDS011;19640;50.944;5.260;2023-12-22T00:50:02;17.17;;;2.80;;
33268;SDS011;19640;50.944;5.260;2023-12-22T00:52:29;12.57;;;1.70;;
33268;SDS011;19640;50.944;5.260;2023-12-22T00:54:55;12.38;;;1.92;;
33268;SDS011;19640;50.944;5.260;2023-12-22T00:57:21;11.82;;;1.58;;
33268;SDS011;19640;50.944;5.260;2023-12-22T00:59:47;13.18;;;2.03;;
33268;SDS011;19640;50.944;5.260;2023-12-22T01:02:13;11.73;;;1.50;;
33268;SDS011;19640;50.944;5.260;2023-12-22T01:04:40;15.45;;;2.05;;
33268;SDS011;19640;50.944;5.260;2023-12-22T01:07:09;10.50;;;1.55;;
33268;SDS011;19640;50.944;5.260;2023-12-22T01:09:35;5.18;;;1.40;;
33268;SDS011;19640;50.944;5.260;2023-12-22T01:12:02;9.50;;;1.50;;
33268;SDS011;19640;50.944;5.260;2023-12-22T01:14:29;16.73;;;2.45;;
33268;SDS011;19640;50.944;5.260;2023-12-22T01:16:55;7.57;;;1.17;;
33268;SDS011;19640;50.944;5.260;2023-12-22T01:19:21;12.85;;;1.55;;
33268;SDS011;19640;50.944;5.260;2023-12-22T01:21:46;7.28;;;1.00;;
33268;SDS011;19640;50.944;5.260;2023-12-22T01:24:12;4.63;;;1.13;;
33268;SDS011;19640;50.944;5.260;2023-12-22T01:26:38;5.65;;;1.30;;
33268;SDS011;19640;50.944;5.260;2023-12-22T01:29:03;8.52;;;1.70;;
33268;SDS011;19640;50.944;5.260;2023-12-22T01:31:29;7.40;;;1.88;;
33268;SDS011;19640;50.944;5.260;2023-12-22T01:33:55;8.77;;;1.42;;
33268;SDS011;19640;50.944;5.260;2023-12-22T01:36:21;7.55;;;1.63;;
33268;SDS011;19640;50.944;5.260;2023-12-22T01:38:46;8.10;;;1.40;;
33268;SDS011;19640;50.944;5.260;2023-12-22T01:41:13;16.75;;;1.77;;
33268;SDS011;19640;50.944;5.260;2023-12-22T01:43:38;16.55;;;2.42;;
33268;SDS011;19640;50.944;5.260;2023-12-22T01:46:04;4.95;;;1.30;;
33268;SDS011;19640;50.944;5.260;2023-12-22T01:48:32;23.20;;;2.08;;
33268;SDS011;19640;50.944;5.260;2023-12-22T01:50:59;10.00;;;1.60;;
33268;SDS011;19640;50.944;5.260;2023-12-22T01:53:27;15.18;;;1.98;;
33268;SDS011;19640;50.944;5.260;2023-12-22T01:55:54;17.15;;;1.90;;
33268;SDS011;19640;50.944;5.260;2023-12-22T01:58:24;15.30;;;1.92;;
33268;SDS011;19640;50.944;5.260;2023-12-22T02:00:52;12.45;;;1.80;;
33268;SDS011;19640;50.944;5.260;2023-12-22T02:03:18;12.98;;;1.55;;
33268;SDS011;19640;50.944;5.260;2023-12-22T02:05:45;5.72;;;1.52;;
33268;SDS011;19640;50.944;5.260;2023-12-22T02:08:11;12.30;;;2.33;;
33268;SDS011;19640;50.944;5.260;2023-12-22T02:10:37;9.07;;;1.57;;
33268;SDS011;19640;50.944;5.260;2023-12-22T02:13:06;10.82;;;1.70;;
33268;SDS011;19640;50.944;5.260;2023-12-22T02:15:34;11.55;;;1.45;;
33268;SDS011;19640;50.944;5.260;2023-12-22T02:18:07;7.63;;;1.73;;
33268;SDS011;19640;50.944;5.260;2023-12-22T02:20:38;14.02;;;1.75;;
33268;SDS011;19640;50.944;5.260;2023-12-22T02:23:04;9.93;;;2.38;;
33268;SDS011;19640;50.944;5.260;2023-12-22T02:25:30;10.60;;;1.73;;
33268;SDS011;19640;50.944;5.260;2023-12-22T02:28:01;8.75;;;1.52;;
33268;SDS011;19640;50.944;5.260;2023-12-22T02:33:15;15.10;;;1.88;;
33268;SDS011;19640;50.944;5.260;2023-12-22T02:35:42;8.18;;;1.88;;
33268;SDS011;19640;50.944;5.260;2023-12-22T02:38:09;13.00;;;2.42;;
33268;SDS011;19640;50.944;5.260;2023-12-22T02:40:37;15.60;;;2.40;;
33268;SDS011;19640;50.944;5.260;2023-12-22T02:43:03;14.50;;;1.90;;
33268;SDS011;19640;50.944;5.260;2023-12-22T02:45:31;14.13;;;3.22;;
33268;SDS011;19640;50.944;5.260;2023-12-22T02:47:57;8.52;;;1.83;;
33268;SDS011;19640;50.944;5.260;2023-12-22T02:50:23;5.95;;;2.40;;
33268;SDS011;19640;50.944;5.260;2023-12-22T02:52:49;9.43;;;2.05;;
33268;SDS011;19640;50.944;5.260;2023-12-22T02:55:14;11.65;;;1.70;;
33268;SDS011;19640;50.944;5.260;2023-12-22T02:57:40;14.52;;;2.15;;
33268;SDS011;19640;50.944;5.260;2023-12-22T03:00:06;10.23;;;2.35;;
33268;SDS011;19640;50.944;5.260;2023-12-22T03:02:33;9.98;;;1.63;;
33268;SDS011;19640;50.944;5.260;2023-12-22T03:04:58;7.43;;;1.67;;
33268;SDS011;19640;50.944;5.260;2023-12-22T03:07:24;11.85;;;2.30;;
33268;SDS011;19640;50.944;5.260;2023-12-22T03:09:49;7.80;;;2.00;;
33268;SDS011;19640;50.944;5.260;2023-12-22T03:12:15;8.27;;;1.77;;
33268;SDS011;19640;50.944;5.260;2023-12-22T03:14:41;20.13;;;2.30;;
33268;SDS011;19640;50.944;5.260;2023-12-22T03:17:06;11.25;;;1.88;;
33268;SDS011;19640;50.944;5.260;2023-12-22T03:19:32;11.00;;;2.13;;
33268;SDS011;19640;50.944;5.260;2023-12-22T03:21:59;23.10;;;2.30;;
33268;SDS011;19640;50.944;5.260;2023-12-22T03:24:25;9.98;;;1.70;;
33268;SDS011;19640;50.944;5.260;2023-12-22T03:26:52;11.48;;;1.70;;
33268;SDS011;19640;50.944;5.260;2023-12-22T03:29:18;14.18;;;1.80;;
33268;SDS011;19640;50.944;5.260;2023-12-22T03:31:44;15.38;;;2.17;;
33268;SDS011;19640;50.944;5.260;2023-12-22T03:34:10;13.23;;;2.42;;
33268;SDS011;19640;50.944;5.260;2023-12-22T03:36:36;10.95;;;2.25;;
33268;SDS011;19640;50.944;5.260;2023-12-22T03:39:02;10.10;;;1.80;;
33268;SDS011;19640;50.944;5.260;2023-12-22T03:41:28;14.10;;;1.77;;
33268;SDS011;19640;50.944;5.260;2023-12-22T03:43:55;8.02;;;1.50;;
33268;SDS011;19640;50.944;5.260;2023-12-22T03:46:21;8.38;;;1.10;;
33268;SDS011;19640;50.944;5.260;2023-12-22T03:48:47;10.30;;;1.40;;
33268;SDS011;19640;50.944;5.260;2023-12-22T03:51:12;9.25;;;1.33;;
33268;SDS011;19640;50.944;5.260;2023-12-22T03:53:40;9.43;;;1.42;;
33268;SDS011;19640;50.944;5.260;2023-12-22T03:56:09;7.35;;;1.50;;
33268;SDS011;19640;50.944;5.260;2023-12-22T03:58:35;7.45;;;1.10;;
33268;SDS011;19640;50.944;5.260;2023-12-22T04:01:01;6.07;;;1.40;;
33268;SDS011;19640;50.944;5.260;2023-12-22T04:03:27;5.90;;;1.27;;
33268;SDS011;19640;50.944;5.260;2023-12-22T04:05:53;11.23;;;2.35;;
33268;SDS011;19640;50.944;5.260;2023-12-22T04:08:18;5.78;;;1.10;;
33268;SDS011;19640;50.944;5.260;2023-12-22T04:10:45;8.35;;;1.73;;
33268;SDS011;19640;50.944;5.260;2023-12-22T04:13:12;6.53;;;1.70;;
33268;SDS011;19640;50.944;5.260;2023-12-22T04:15:38;8.73;;;1.25;;
33268;SDS011;19640;50.944;5.260;2023-12-22T04:18:04;7.60;;;1.42;;
33268;SDS011;19640;50.944;5.260;2023-12-22T04:20:30;7.63;;;1.20;;
33268;SDS011;19640;50.944;5.260;2023-12-22T04:22:56;9.10;;;1.80;;
33268;SDS011;19640;50.944;5.260;2023-12-22T04:25:22;7.72;;;2.05;;
33268;SDS011;19640;50.944;5.260;2023-12-22T04:27:49;11.82;;;2.10;;
33268;SDS011;19640;50.944;5.260;2023-12-22T04:30:15;7.70;;;2.00;;
33268;SDS011;19640;50.944;5.260;2023-12-22T04:32:41;12.68;;;1.80;;
33268;SDS011;19640;50.944;5.260;2023-12-22T04:35:07;13.43;;;2.85;;
33268;SDS011;19640;50.944;5.260;2023-12-22T04:37:33;5.93;;;1.67;;
33268;SDS011;19640;50.944;5.260;2023-12-22T04:39:58;13.40;;;2.13;;
33268;SDS011;19640;50.944;5.260;2023-12-22T04:42:24;11.35;;;2.85;;
33268;SDS011;19640;50.944;5.260;2023-12-22T04:44:53;11.25;;;2.97;;
33268;SDS011;19640;50.944;5.260;2023-12-22T04:47:19;19.88;;;2.63;;
33268;SDS011;19640;50.944;5.260;2023-12-22T04:49:44;10.48;;;2.33;;
33268;SDS011;19640;50.944;5.260;2023-12-22T04:52:10;9.65;;;1.98;;
33268;SDS011;19640;50.944;5.260;2023-12-22T04:54:36;13.93;;;2.22;;
33268;SDS011;19640;50.944;5.260;2023-12-22T04:57:02;13.13;;;2.17;;
33268;SDS011;19640;50.944;5.260;2023-12-22T04:59:28;10.13;;;2.20;;
33268;SDS011;19640;50.944;5.260;2023-12-22T05:01:54;10.65;;;2.25;;
33268;SDS011;19640;50.944;5.260;2023-12-22T05:04:20;10.35;;;1.88;;
33268;SDS011;19640;50.944;5.260;2023-12-22T05:06:46;10.48;;;1.73;;
33268;SDS011;19640;50.944;5.260;2023-12-22T05:09:12;9.20;;;3.00;;
33268;SDS011;19640;50.944;5.260;2023-12-22T05:11:38;11.32;;;2.33;;
33268;SDS011;19640;50.944;5.260;2023-12-22T05:14:03;10.05;;;2.00;;
33268;SDS011;19640;50.944;5.260;2023-12-22T05:16:29;12.80;;;2.20;;
33268;SDS011;19640;50.944;5.260;2023-12-22T05:18:59;13.38;;;2.10;;
33268;SDS011;19640;50.944;5.260;2023-12-22T05:21:24;17.98;;;2.88;;
33268;SDS011;19640;50.944;5.260;2023-12-22T05:23:50;18.73;;;3.50;;
33268;SDS011;19640;50.944;5.260;2023-12-22T05:26:22;19.45;;;2.88;;
33268;SDS011;19640;50.944;5.260;2023-12-22T05:28:48;13.00;;;2.92;;
33268;SDS011;19640;50.944;5.260;2023-12-22T05:31:16;22.00;;;3.22;;
33268;SDS011;19640;50.944;5.260;2023-12-22T05:33:42;22.50;;;3.10;;
33268;SDS011;19640;50.944;5.260;2023-12-22T05:36:08;21.00;;;2.45;;
33268;SDS011;19640;50.944;5.260;2023-12-22T05:38:38;22.92;;;4.22;;
33268;SDS011;19640;50.944;5.260;2023-12-22T05:41:04;19.23;;;3.35;;
33268;SDS011;19640;50.944;5.260;2023-12-22T05:43:31;19.88;;;2.72;;
33268;SDS011;19640;50.944;5.260;2023-12-22T05:45:58;29.15;;;3.63;;
33268;SDS011;19640;50.944;5.260;2023-12-22T05:48:25;15.70;;;2.72;;
33268;SDS011;19640;50.944;5.260;2023-12-22T05:50:51;19.98;;;3.05;;
33268;SDS011;19640;50.944;5.260;2023-12-22T05:53:17;19.33;;;2.38;;
33268;SDS011;19640;50.944;5.260;2023-12-22T05:55:42;17.25;;;3.63;;
33268;SDS011;19640;50.944;5.260;2023-12-22T05:58:08;15.57;;;3.05;;
33268;SDS011;19640;50.944;5.260;2023-12-22T06:00:34;18.38;;;3.13;;
33268;SDS011;19640;50.944;5.260;2023-12-22T06:03:00;16.63;;;2.83;;
33268;SDS011;19640;50.944;5.260;2023-12-22T06:05:26;23.63;;;3.05;;
33268;SDS011;19640;50.944;5.260;2023-12-22T06:07:52;19.73;;;2.85;;
33268;SDS011;19640;50.944;5.260;2023-12-22T06:10:17;22.80;;;3.47;;
33268;SDS011;19640;50.944;5.260;2023-12-22T06:12:43;19.08;;;2.92;;
33268;SDS011;19640;50.944;5.260;2023-12-22T06:15:09;23.65;;;3.13;;
33268;SDS011;19640;50.944;5.260;2023-12-22T06:17:35;24.63;;;3.67;;
33268;SDS011;19640;50.944;5.260;2023-12-22T06:20:01;21.10;;;3.72;;
33268;SDS011;19640;50.944;5.260;2023-12-22T06:22:26;16.92;;;3.20;;
33268;SDS011;19640;50.944;5.260;2023-12-22T06:24:52;28.58;;;2.65;;
33268;SDS011;19640;50.944;5.260;2023-12-22T06:27:18;23.15;;;2.70;;
33268;SDS011;19640;50.944;5.260;2023-12-22T06:29:43;14.40;;;2.67;;
33268;SDS011;19640;50.944;5.260;2023-12-22T06:32:09;22.30;;;3.65;;
33268;SDS011;19640;50.944;5.260;2023-12-22T06:34:35;20.75;;;3.63;;
33268;SDS011;19640;50.944;5.260;2023-12-22T06:37:00;19.25;;;4.30;;
33268;SDS011;19640;50.944;5.260;2023-12-22T06:39:26;23.92;;;3.75;;
33268;SDS011;19640;50.944;5.260;2023-12-22T06:41:52;13.38;;;3.03;;
33268;SDS011;19640;50.944;5.260;2023-12-22T06:44:17;22.00;;;3.47;;
33268;SDS011;19640;50.944;5.260;2023-12-22T06:46:43;27.83;;;3.55;;
33268;SDS011;19640;50.944;5.260;2023-12-22T06:49:08;19.70;;;3.50;;
33268;SDS011;19640;50.944;5.260;2023-12-22T06:51:34;19.58;;;3.35;;
33268;SDS011;19640;50.944;5.260;2023-12-22T06:54:00;25.00;;;3.15;;
33268;SDS011;19640;50.944;5.260;2023-12-22T06:56:27;26.38;;;3.78;;
33268;SDS011;19640;50.944;5.260;2023-12-22T06:58:55;23.75;;;3.03;;
33268;SDS011;19640;50.944;5.260;2023-12-22T07:03:58;26.20;;;3.80;;
33268;SDS011;19640;50.944;5.260;2023-12-22T07:06:25;26.63;;;3.35;;
33268;SDS011;19640;50.944;5.260;2023-12-22T07:11:22;28.65;;;4.07;;
33268;SDS011;19640;50.944;5.260;2023-12-22T07:13:48;17.30;;;3.80;;
33268;SDS011;19640;50.944;5.260;2023-12-22T07:16:14;19.88;;;3.33;;
33268;SDS011;19640;50.944;5.260;2023-12-22T07:18:40;23.77;;;3.60;;
33268;SDS011;19640;50.944;5.260;2023-12-22T07:21:06;17.75;;;3.25;;
33268;SDS011;19640;50.944;5.260;2023-12-22T07:23:32;21.02;;;3.53;;
33268;SDS011;19640;50.944;5.260;2023-12-22T07:25:58;19.92;;;3.53;;
33268;SDS011;19640;50.944;5.260;2023-12-22T07:28:23;17.90;;;3.80;;
33268;SDS011;19640;50.944;5.260;2023-12-22T07:30:49;19.92;;;3.00;;
33268;SDS011;19640;50.944;5.260;2023-12-22T07:33:15;19.15;;;3.38;;
33268;SDS011;19640;50.944;5.260;2023-12-22T07:35:40;16.92;;;2.78;;
33268;SDS011;19640;50.944;5.260;2023-12-22T07:38:06;24.15;;;4.35;;
33268;SDS011;19640;50.944;5.260;2023-12-22T07:40:32;19.10;;;3.10;;
33268;SDS011;19640;50.944;5.260;2023-12-22T07:42:57;22.52;;;3.15;;
33268;SDS011;19640;50.944;5.260;2023-12-22T07:45:23;22.02;;;2.90;;
33268;SDS011;19640;50.944;5.260;2023-12-22T07:47:49;14.82;;;2.58;;
33268;SDS011;19640;50.944;5.260;2023-12-22T07:50:14;12.00;;;2.53;;
33268;SDS011;19640;50.944;5.260;2023-12-22T07:52:40;8.15;;;2.00;;
33268;SDS011;19640;50.944;5.260;2023-12-22T07:55:06;10.57;;;1.73;;
33268;SDS011;19640;50.944;5.260;2023-12-22T07:57:37;12.52;;;2.65;;
33268;SDS011;19640;50.944;5.260;2023-12-22T08:00:03;17.63;;;2.03;;
33268;SDS011;19640;50.944;5.260;2023-12-22T08:02:30;15.65;;;2.97;;
33268;SDS011;19640;50.944;5.260;2023-12-22T08:04:55;21.17;;;2.25;;
33268;SDS011;19640;50.944;5.260;2023-12-22T08:07:22;13.23;;;2.35;;
33268;SDS011;19640;50.944;5.260;2023-12-22T08:09:47;8.88;;;1.98;;
33268;SDS011;19640;50.944;5.260;2023-12-22T08:12:13;12.82;;;2.20;;
33268;SDS011;19640;50.944;5.260;2023-12-22T08:14:39;12.98;;;1.88;;
33268;SDS011;19640;50.944;5.260;2023-12-22T08:17:06;12.98;;;1.92;;
33268;SDS011;19640;50.944;5.260;2023-12-22T08:19:31;8.30;;;1.85;;
33268;SDS011;19640;50.944;5.260;2023-12-22T08:21:57;15.93;;;2.63;;
33268;SDS011;19640;50.944;5.260;2023-12-22T08:24:23;6.18;;;1.80;;
33268;SDS011;19640;50.944;5.260;2023-12-22T08:26:49;5.78;;;2.22;;
33268;SDS011;19640;50.944;5.260;2023-12-22T08:29:15;12.90;;;2.75;;
33268;SDS011;19640;50.944;5.260;2023-12-22T08:31:41;10.25;;;2.38;;
33268;SDS011;19640;50.944;5.260;2023-12-22T08:34:07;13.43;;;2.70;;
33268;SDS011;19640;50.944;5.260;2023-12-22T08:36:33;11.13;;;2.75;;
33268;SDS011;19640;50.944;5.260;2023-12-22T08:38:58;9.93;;;2.40;;
33268;SDS011;19640;50.944;5.260;2023-12-22T08:41:24;6.03;;;2.03;;
33268;SDS011;19640;50.944;5.260;2023-12-22T08:43:50;14.88;;;2.53;;
33268;SDS011;19640;50.944;5.260;2023-12-22T08:46:15;11.82;;;2.38;;
33268;SDS011;19640;50.944;5.260;2023-12-22T08:48:41;7.63;;;2.05;;
33268;SDS011;19640;50.944;5.260;2023-12-22T08:51:07;8.85;;;2.60;;
33268;SDS011;19640;50.944;5.260;2023-12-22T08:53:33;7.97;;;2.55;;
33268;SDS011;19640;50.944;5.260;2023-12-22T08:56:02;12.00;;;2.72;;
33268;SDS011;19640;50.944;5.260;2023-12-22T08:58:28;14.48;;;2.17;;
33268;SDS011;19640;50.944;5.260;2023-12-22T09:00:54;14.27;;;2.47;;
33268;SDS011;19640;50.944;5.260;2023-12-22T09:03:20;10.65;;;2.30;;
33268;SDS011;19640;50.944;5.260;2023-12-22T09:05:46;7.40;;;1.92;;
33268;SDS011;19640;50.944;5.260;2023-12-22T09:08:12;5.63;;;2.22;;
33268;SDS011;19640;50.944;5.260;2023-12-22T09:10:38;10.75;;;2.13;;
33268;SDS011;19640;50.944;5.260;2023-12-22T09:13:03;5.75;;;1.85;;
33268;SDS011;19640;50.944;5.260;2023-12-22T09:15:29;10.75;;;1.58;;
33268;SDS011;19640;50.944;5.260;2023-12-22T09:17:55;6.70;;;2.45;;
33268;SDS011;19640;50.944;5.260;2023-12-22T09:20:21;9.63;;;2.30;;
33268;SDS011;19640;50.944;5.260;2023-12-22T09:22:47;6.97;;;2.38;;
33268;SDS011;19640;50.944;5.260;2023-12-22T09:25:13;6.65;;;1.85;;
33268;SDS011;19640;50.944;5.260;2023-12-22T09:27:39;4.25;;;2.13;;
33268;SDS011;19640;50.944;5.260;2023-12-22T09:30:04;5.70;;;1.52;;
33268;SDS011;19640;50.944;5.260;2023-12-22T09:32:34;7.45;;;2.03;;
33268;SDS011;19640;50.944;5.260;2023-12-22T09:35:00;2.88;;;2.25;;
33268;SDS011;19640;50.944;5.260;2023-12-22T09:37:26;4.82;;;2.75;;
33268;SDS011;19640;50.944;5.260;2023-12-22T09:39:52;7.90;;;2.67;;
33268;SDS011;19640;50.944;5.260;2023-12-22T09:42:18;3.15;;;2.38;;
33268;SDS011;19640;50.944;5.260;2023-12-22T09:44:45;4.53;;;2.05;;
33268;SDS011;19640;50.944;5.260;2023-12-22T09:47:14;4.85;;;3.10;;
33268;SDS011;19640;50.944;5.260;2023-12-22T09:49:42;3.13;;;2.35;;
33268;SDS011;19640;50.944;5.260;2023-12-22T09:52:09;3.40;;;2.08;;
33268;SDS011;19640;50.944;5.260;2023-12-22T09:54:36;2.88;;;1.98;;
33268;SDS011;19640;50.944;5.260;2023-12-22T09:57:02;5.07;;;2.30;;
33268;SDS011;19640;50.944;5.260;2023-12-22T09:59:29;2.75;;;1.80;;
33268;SDS011;19640;50.944;5.260;2023-12-22T10:01:56;3.10;;;2.17;;
33268;SDS011;19640;50.944;5.260;2023-12-22T10:04:24;2.75;;;2.15;;
33268;SDS011;19640;50.944;5.260;2023-12-22T10:06:50;4.65;;;2.10;;
33268;SDS011;19640;50.944;5.260;2023-12-22T10:09:18;3.80;;;2.10;;
33268;SDS011;19640;50.944;5.260;2023-12-22T10:11:44;4.20;;;2.30;;
33268;SDS011;19640;50.944;5.260;2023-12-22T10:14:14;3.63;;;2.03;;
33268;SDS011;19640;50.944;5.260;2023-12-22T10:16:47;3.58;;;1.85;;
33268;SDS011;19640;50.944;5.260;2023-12-22T10:19:19;4.07;;;1.58;;
33268;SDS011;19640;50.944;5.260;2023-12-22T10:21:48;3.28;;;1.70;;
33268;SDS011;19640;50.944;5.260;2023-12-22T10:27:10;3.22;;;1.63;;
33268;SDS011;19640;50.944;5.260;2023-12-22T10:29:36;1.80;;;1.27;;
33268;SDS011;19640;50.944;5.260;2023-12-22T10:32:02;3.08;;;1.67;;
33268;SDS011;19640;50.944;5.260;2023-12-22T10:34:30;4.38;;;1.95;;
33268;SDS011;19640;50.944;5.260;2023-12-22T10:36:56;3.13;;;2.05;;
33268;SDS011;19640;50.944;5.260;2023-12-22T10:39:33;5.82;;;4.78;;
33268;SDS011;19640;50.944;5.260;2023-12-22T10:42:01;6.72;;;2.45;;
33268;SDS011;19640;50.944;5.260;2023-12-22T10:44:28;6.47;;;2.53;;
33268;SDS011;19640;50.944;5.260;2023-12-22T10:46:54;3.53;;;1.75;;
33268;SDS011;19640;50.944;5.260;2023-12-22T10:49:24;3.35;;;2.08;;
33268;SDS011;19640;50.944;5.260;2023-12-22T10:51:50;6.75;;;2.30;;
33268;SDS011;19640;50.944;5.260;2023-12-22T10:54:16;3.17;;;2.25;;
33268;SDS011;19640;50.944;5.260;2023-12-22T10:56:42;8.85;;;1.67;;
33268;SDS011;19640;50.944;5.260;2023-12-22T10:59:08;3.85;;;2.47;;
33268;SDS011;19640;50.944;5.260;2023-12-22T11:01:35;8.75;;;2.28;;
33268;SDS011;19640;50.944;5.260;2023-12-22T11:04:09;3.80;;;2.25;;
33268;SDS011;19640;50.944;5.260;2023-12-22T11:06:41;2.25;;;1.70;;
33268;SDS011;19640;50.944;5.260;2023-12-22T11:09:09;4.00;;;1.60;;
33268;SDS011;19640;50.944;5.260;2023-12-22T11:11:38;2.08;;;1.00;;
33268;SDS011;19640;50.944;5.260;2023-12-22T11:14:06;5.78;;;1.73;;
33268;SDS011;19640;50.944;5.260;2023-12-22T11:16:32;8.43;;;1.55;;
33268;SDS011;19640;50.944;5.260;2023-12-22T11:19:00;4.57;;;1.30;;
33268;SDS011;19640;50.944;5.260;2023-12-22T11:21:27;3.78;;;1.45;;
33268;SDS011;19640;50.944;5.260;2023-12-22T11:23:54;3.60;;;1.13;;
33268;SDS011;19640;50.944;5.260;2023-12-22T11:26:21;5.13;;;1.40;;
33268;SDS011;19640;50.944;5.260;2023-12-22T11:28:48;7.03;;;2.10;;
33268;SDS011;19640;50.944;5.260;2023-12-22T11:31:16;2.15;;;0.90;;
33268;SDS011;19640;50.944;5.260;2023-12-22T11:33:46;2.80;;;1.10;;
33268;SDS011;19640;50.944;5.260;2023-12-22T11:36:17;5.07;;;1.30;;
33268;SDS011;19640;50.944;5.260;2023-12-22T11:38:46;5.20;;;1.27;;
33268;SDS011;19640;50.944;5.260;2023-12-22T11:41:33;4.03;;;1.30;;
33268;SDS011;19640;50.944;5.260;2023-12-22T11:44:00;5.57;;;1.25;;
33268;SDS011;19640;50.944;5.260;2023-12-22T11:46:29;5.85;;;1.23;;
33268;SDS011;19640;50.944;5.260;2023-12-22T11:48:55;1.77;;;0.80;;
33268;SDS011;19640;50.944;5.260;2023-12-22T11:51:21;1.77;;;1.27;;
33268;SDS011;19640;50.944;5.260;2023-12-22T11:53:47;3.85;;;1.00;;
33268;SDS011;19640;50.944;5.260;2023-12-22T11:56:13;2.45;;;1.02;;
33268;SDS011;19640;50.944;5.260;2023-12-22T11:58:42;1.27;;;0.80;;
33268;SDS011;19640;50.944;5.260;2023-12-22T12:01:16;4.63;;;1.58;;
33268;SDS011;19640;50.944;5.260;2023-12-22T12:03:53;5.18;;;0.70;;
33268;SDS011;19640;50.944;5.260;2023-12-22T12:08:54;1.52;;;0.80;;
33268;SDS011;19640;50.944;5.260;2023-12-22T12:11:21;2.25;;;0.65;;
33268;SDS011;19640;50.944;5.260;2023-12-22T12:13:47;1.77;;;0.50;;
33268;SDS011;19640;50.944;5.260;2023-12-22T12:16:15;3.75;;;0.93;;
33268;SDS011;19640;50.944;5.260;2023-12-22T12:18:46;3.63;;;0.80;;
33268;SDS011;19640;50.944;5.260;2023-12-22T12:21:12;3.97;;;0.80;;
33268;SDS011;19640;50.944;5.260;2023-12-22T12:23:38;2.92;;;0.68;;
33268;SDS011;19640;50.944;5.260;2023-12-22T12:26:06;2.45;;;0.55;;
33268;SDS011;19640;50.944;5.260;2023-12-22T12:28:33;2.60;;;0.70;;
33268;SDS011;19640;50.944;5.260;2023-12-22T12:31:04;3.45;;;1.05;;
33268;SDS011;19640;50.944;5.260;2023-12-22T12:33:31;1.77;;;0.70;;
33268;SDS011;19640;50.944;5.260;2023-12-22T12:35:58;4.53;;;1.00;;
33268;SDS011;19640;50.944;5.260;2023-12-22T12:38:36;3.35;;;0.80;;
33268;SDS011;19640;50.944;5.260;2023-12-22T12:41:04;1.75;;;0.93;;
33268;SDS011;19640;50.944;5.260;2023-12-22T12:43:31;3.72;;;1.10;;
33268;SDS011;19640;50.944;5.260;2023-12-22T12:46:04;2.40;;;0.70;;
33268;SDS011;19640;50.944;5.260;2023-12-22T12:48:30;1.95;;;0.65;;
33268;SDS011;19640;50.944;5.260;2023-12-22T12:51:03;3.90;;;0.80;;
33268;SDS011;19640;50.944;5.260;2023-12-22T12:53:32;3.83;;;0.50;;
33268;SDS011;19640;50.944;5.260;2023-12-22T12:55:59;3.47;;;0.60;;
33268;SDS011;19640;50.944;5.260;2023-12-22T12:58:31;4.00;;;0.77;;
33268;SDS011;19640;50.944;5.260;2023-12-22T13:01:08;4.03;;;0.40;;
33268;SDS011;19640;50.944;5.260;2023-12-22T13:03:53;3.55;;;0.55;;
33268;SDS011;19640;50.944;5.260;2023-12-22T13:06:19;2.38;;;0.60;;
33268;SDS011;19640;50.944;5.260;2023-12-22T13:08:49;4.00;;;0.60;;
33268;SDS011;19640;50.944;5.260;2023-12-22T13:11:15;1.25;;;0.60;;
33268;SDS011;19640;50.944;5.260;2023-12-22T13:13:51;1.48;;;0.57;;
33268;SDS011;19640;50.944;5.260;2023-12-22T13:16:20;3.00;;;0.60;;
33268;SDS011;19640;50.944;5.260;2023-12-22T13:18:57;8.15;;;0.77;;
33268;SDS011;19640;50.944;5.260;2023-12-22T13:21:23;6.13;;;0.85;;
33268;SDS011;19640;50.944;5.260;2023-12-22T13:26:43;3.10;;;0.70;;
33268;SDS011;19640;50.944;5.260;2023-12-22T13:29:11;7.13;;;0.70;;
33268;SDS011;19640;50.944;5.260;2023-12-22T13:31:38;3.40;;;0.50;;
33268;SDS011;19640;50.944;5.260;2023-12-22T13:34:10;1.55;;;0.40;;
33268;SDS011;19640;50.944;5.260;2023-12-22T13:36:39;3.28;;;0.52;;
33268;SDS011;19640;50.944;5.260;2023-12-22T13:39:07;1.60;;;0.60;;
33268;SDS011;19640;50.944;5.260;2023-12-22T13:41:34;5.70;;;0.82;;
33268;SDS011;19640;50.944;5.260;2023-12-22T13:44:04;4.32;;;0.50;;
33268;SDS011;19640;50.944;5.260;2023-12-22T13:46:30;3.53;;;0.80;;
33268;SDS011;19640;50.944;5.260;2023-12-22T13:48:57;3.03;;;0.60;;
33268;SDS011;19640;50.944;5.260;2023-12-22T13:51:23;1.70;;;0.90;;
33268;SDS011;19640;50.944;5.260;2023-12-22T13:53:50;7.45;;;0.80;;
33268;SDS011;19640;50.944;5.260;2023-12-22T13:56:15;4.93;;;0.70;;
33268;SDS011;19640;50.944;5.260;2023-12-22T13:58:47;2.25;;;0.60;;
33268;SDS011;19640;50.944;5.260;2023-12-22T14:01:14;3.88;;;0.60;;
33268;SDS011;19640;50.944;5.260;2023-12-22T14:03:41;1.25;;;0.57;;
33268;SDS011;19640;50.944;5.260;2023-12-22T14:06:10;1.92;;;0.70;;
33268;SDS011;19640;50.944;5.260;2023-12-22T14:08:39;5.72;;;0.90;;
33268;SDS011;19640;50.944;5.260;2023-12-22T14:11:05;3.42;;;0.80;;
33268;SDS011;19640;50.944;5.260;2023-12-22T14:13:31;1.98;;;0.60;;
33268;SDS011;19640;50.944;5.260;2023-12-22T14:15:57;2.67;;;0.70;;
33268;SDS011;19640;50.944;5.260;2023-12-22T14:18:23;3.85;;;1.10;;
33268;SDS011;19640;50.944;5.260;2023-12-22T14:20:49;3.80;;;0.85;;
33268;SDS011;19640;50.944;5.260;2023-12-22T14:23:14;8.00;;;1.08;;
33268;SDS011;19640;50.944;5.260;2023-12-22T14:25:42;3.67;;;0.70;;
33268;SDS011;19640;50.944;5.260;2023-12-22T14:28:08;2.50;;;0.50;;
33268;SDS011;19640;50.944;5.260;2023-12-22T14:30:34;5.20;;;1.58;;
33268;SDS011;19640;50.944;5.260;2023-12-22T14:32:59;2.55;;;0.77;;
33268;SDS011;19640;50.944;5.260;2023-12-22T14:35:25;2.40;;;0.68;;
33268;SDS011;19640;50.944;5.260;2023-12-22T14:37:51;2.72;;;0.63;;
33268;SDS011;19640;50.944;5.260;2023-12-22T14:40:16;4.75;;;0.90;;
33268;SDS011;19640;50.944;5.260;2023-12-22T14:42:42;9.93;;;0.95;;
33268;SDS011;19640;50.944;5.260;2023-12-22T14:45:08;5.03;;;0.90;;
33268;SDS011;19640;50.944;5.260;2023-12-22T14:47:34;5.55;;;1.27;;
33268;SDS011;19640;50.944;5.260;2023-12-22T14:50:00;4.88;;;0.80;;
33268;SDS011;19640;50.944;5.260;2023-12-22T14:52:29;3.25;;;0.70;;
33268;SDS011;19640;50.944;5.260;2023-12-22T14:54:57;3.28;;;0.88;;